Time;durP1;ratioP1;P1;durP2;ratioP2;P2;SDS_P1;SDS_P2;PMS_P1;PMS_P2;Temp;Humidity;BMP_temperature;BMP_pressure;BME280_temperature;BME280_humidity;BME280_pressure;Samples;Min_cycle;Max_cycle;Signal;HPM_P1;HPM_P2
2021/09/24 00:01:25;;;;;;;7.72;1.85;;;18.70;85.90;;;;;;4208241;28;20143;-62
2021/09/24 00:03:47;;;;;;;6.28;2.15;;;18.70;86.80;;;;;;4208286;28;20093;-62
2021/09/24 00:06:09;;;;;;;8.75;2.35;;;18.70;86.10;;;;;;4208728;28;20521;-62
2021/09/24 00:08:33;;;;;;;9.38;2.25;;;18.70;85.90;;;;;;4208696;28;20059;-62
2021/09/24 00:10:56;;;;;;;7.55;1.77;;;18.70;86.00;;;;;;4208201;28;20056;-62
2021/09/24 00:13:19;;;;;;;8.25;2.33;;;18.70;86.10;;;;;;4208479;28;20074;-62
2021/09/24 00:15:41;;;;;;;10.38;2.40;;;18.60;86.10;;;;;;4208483;28;20498;-61
2021/09/24 00:18:03;;;;;;;7.22;2.65;;;18.70;86.20;;;;;;4208420;28;20113;-62
2021/09/24 00:20:26;;;;;;;5.57;2.10;;;18.70;85.90;;;;;;4208113;28;20051;-62
2021/09/24 00:22:48;;;;;;;7.55;2.08;;;18.60;86.00;;;;;;4191499;28;20694;-61
2021/09/24 00:25:12;;;;;;;8.15;2.45;;;18.60;86.30;;;;;;4191897;28;20063;-62
2021/09/24 00:27:34;;;;;;;6.97;2.30;;;18.60;86.20;;;;;;4191195;28;20072;-61
2021/09/24 00:29:56;;;;;;;7.90;2.38;;;18.60;86.20;;;;;;4201965;28;20490;-62
2021/09/24 00:32:21;;;;;;;7.68;2.35;;;18.60;86.40;;;;;;4207771;28;20036;-62
2021/09/24 00:34:44;;;;;;;6.25;2.13;;;18.60;86.40;;;;;;4208318;28;20044;-64
2021/09/24 00:37:06;;;;;;;6.72;2.10;;;18.60;86.30;;;;;;4207896;28;20040;-62
2021/09/24 00:39:28;;;;;;;10.68;2.45;;;18.60;86.30;;;;;;4207801;28;20043;-62
2021/09/24 00:41:52;;;;;;;8.30;2.47;;;18.60;86.20;;;;;;4206739;28;20056;-62
2021/09/24 00:44:14;;;;;;;8.80;2.28;;;18.60;86.30;;;;;;4207408;28;20052;-62
2021/09/24 00:46:36;;;;;;;8.88;1.98;;;18.60;86.40;;;;;;4207722;28;20039;-61
2021/09/24 00:49:12;;;;;;;7.43;2.30;;;18.60;86.20;;;;;;4206801;28;20245;-62
2021/09/24 00:51:34;;;;;;;7.85;2.55;;;18.60;86.60;;;;;;4207310;28;20051;-63
2021/09/24 00:53:56;;;;;;;9.88;2.38;;;18.60;86.60;;;;;;4207400;28;20519;-63
2021/09/24 00:56:19;;;;;;;8.63;2.22;;;18.60;86.70;;;;;;4207434;28;20059;-63
2021/09/24 00:58:42;;;;;;;8.77;2.33;;;18.60;87.50;;;;;;4207631;28;20429;-63
2021/09/24 01:01:04;;;;;;;5.93;1.77;;;18.60;86.60;;;;;;4191049;28;20052;-63
2021/09/24 01:03:26;;;;;;;7.07;2.42;;;18.60;86.60;;;;;;4190817;28;20045;-62
2021/09/24 01:05:49;;;;;;;7.78;2.25;;;18.50;86.80;;;;;;4190252;28;20059;-62
2021/09/24 01:08:14;;;;;;;10.88;3.00;;;18.60;86.70;;;;;;4191463;28;20565;-63
2021/09/24 01:10:36;;;;;;;8.15;2.42;;;18.60;86.80;;;;;;4205756;28;20055;-62
2021/09/24 01:12:58;;;;;;;6.70;2.65;;;18.60;86.90;;;;;;4208011;28;20040;-62
2021/09/24 01:15:21;;;;;;;10.98;2.20;;;18.50;86.80;;;;;;4207460;28;20044;-63
2021/09/24 01:17:44;;;;;;;8.88;2.22;;;18.60;86.70;;;;;;4207564;28;20046;-62
2021/09/24 01:20:09;;;;;;;8.13;2.08;;;18.50;87.70;;;;;;4207487;28;20075;-62
2021/09/24 01:22:33;;;;;;;11.50;2.83;;;18.50;87.00;;;;;;4207825;28;20056;-63
2021/09/24 01:24:54;;;;;;;11.57;2.30;;;18.50;87.20;;;;;;4207785;28;20078;-62
2021/09/24 01:27:17;;;;;;;5.18;2.38;;;18.50;87.00;;;;;;4207784;28;20052;-62
2021/09/24 01:29:38;;;;;;;8.38;2.42;;;18.50;87.10;;;;;;4207343;28;20052;-62
2021/09/24 01:32:01;;;;;;;11.50;2.22;;;18.50;87.00;;;;;;4207702;28;20040;-63
2021/09/24 01:34:23;;;;;;;8.00;2.47;;;18.50;87.10;;;;;;4207689;28;20137;-62
2021/09/24 01:36:45;;;;;;;7.00;1.85;;;18.50;87.10;;;;;;4207279;28;20100;-63
2021/09/24 01:39:11;;;;;;;8.35;2.55;;;18.50;87.20;;;;;;4207272;28;20410;-62
2021/09/24 01:41:33;;;;;;;6.85;2.00;;;18.50;87.10;;;;;;4207408;28;20411;-61
2021/09/24 01:43:54;;;;;;;10.38;2.53;;;18.50;87.30;;;;;;4207434;28;20116;-63
2021/09/24 01:46:16;;;;;;;9.95;2.30;;;18.50;87.40;;;;;;4207617;28;20101;-62
2021/09/24 01:48:38;;;;;;;7.40;2.15;;;18.50;87.20;;;;;;4207582;28;20094;-62
2021/09/24 01:51:00;;;;;;;7.10;2.28;;;18.50;87.40;;;;;;4191022;28;20068;-62
2021/09/24 01:53:22;;;;;;;7.78;2.20;;;18.50;87.40;;;;;;4190718;28;20505;-62
2021/09/24 01:55:46;;;;;;;7.32;2.25;;;18.50;87.40;;;;;;4190811;28;20601;-62
2021/09/24 01:58:08;;;;;;;9.18;2.28;;;18.50;87.40;;;;;;4191488;28;20498;-63
2021/09/24 02:00:30;;;;;;;8.63;2.30;;;18.50;87.40;;;;;;4202764;28;20494;-62
2021/09/24 02:02:52;;;;;;;9.23;2.88;;;18.50;87.40;;;;;;4207099;28;20563;-62
2021/09/24 02:05:14;;;;;;;7.75;1.85;;;18.50;87.50;;;;;;4207559;28;20055;-61
2021/09/24 02:07:36;;;;;;;5.78;2.03;;;18.50;87.60;;;;;;4207077;28;20135;-62
2021/09/24 02:09:59;;;;;;;4.95;1.98;;;18.50;87.70;;;;;;4205856;28;20125;-62
2021/09/24 02:12:23;;;;;;;6.40;2.45;;;18.50;87.70;;;;;;4207338;28;20133;-62
2021/09/24 02:14:45;;;;;;;6.43;1.80;;;18.50;87.70;;;;;;4207518;28;20131;-62
2021/09/24 02:17:08;;;;;;;8.40;2.38;;;18.50;87.70;;;;;;4207325;28;20071;-62
2021/09/24 02:19:30;;;;;;;6.72;1.85;;;18.50;87.70;;;;;;4205338;28;20078;-62
2021/09/24 02:21:52;;;;;;;9.18;2.22;;;18.50;87.80;;;;;;4207243;28;20047;-62
2021/09/24 02:24:14;;;;;;;8.73;2.33;;;18.50;87.70;;;;;;4207167;28;20048;-62
2021/09/24 02:26:36;;;;;;;7.78;2.30;;;18.50;87.70;;;;;;4206776;28;20058;-61
2021/09/24 02:29:05;;;;;;;9.35;2.13;;;18.50;87.60;;;;;;4210015;28;20426;-62
2021/09/24 02:31:27;;;;;;;6.43;1.92;;;18.50;87.60;;;;;;4210296;28;20131;-62
2021/09/24 02:33:49;;;;;;;6.40;2.35;;;18.50;88.70;;;;;;4210076;28;20036;-62
2021/09/24 02:36:12;;;;;;;7.13;2.45;;;18.50;87.80;;;;;;4210152;28;20052;-62
2021/09/24 02:38:34;;;;;;;6.68;2.25;;;18.50;87.80;;;;;;4209965;28;20051;-62
2021/09/24 02:40:56;;;;;;;7.68;2.35;;;18.50;88.00;;;;;;4209993;28;20497;-62
2021/09/24 02:43:18;;;;;;;8.32;2.08;;;18.50;88.00;;;;;;4210230;28;20063;-63
2021/09/24 02:45:41;;;;;;;7.85;2.55;;;18.50;88.00;;;;;;4210136;28;20040;-62
2021/09/24 02:48:03;;;;;;;7.70;2.50;;;18.50;88.00;;;;;;4192967;28;20141;-61
2021/09/24 02:50:25;;;;;;;10.27;2.38;;;18.50;88.00;;;;;;4193035;28;20044;-62
2021/09/24 02:52:47;;;;;;;9.00;2.70;;;18.50;87.90;;;;;;4193177;28;20047;-62
2021/09/24 02:55:10;;;;;;;7.63;2.63;;;18.50;87.80;;;;;;4193194;28;20744;-62
2021/09/24 02:57:33;;;;;;;11.40;3.00;;;18.50;87.80;;;;;;4193216;28;20071;-64
2021/09/24 02:59:55;;;;;;;5.15;1.92;;;18.50;88.70;;;;;;4207126;28;20512;-62
2021/09/24 03:02:19;;;;;;;9.05;2.15;;;18.50;88.10;;;;;;4209640;28;20128;-62
2021/09/24 03:04:41;;;;;;;6.70;1.95;;;18.50;88.00;;;;;;4209523;28;20063;-62
2021/09/24 03:07:04;;;;;;;7.40;2.05;;;18.50;88.10;;;;;;4209406;28;20055;-62
2021/09/24 03:09:26;;;;;;;7.82;2.17;;;18.50;88.20;;;;;;4209261;28;20634;-62
2021/09/24 03:11:48;;;;;;;10.77;2.50;;;18.50;88.20;;;;;;4209343;28;20048;-63
2021/09/24 03:14:10;;;;;;;7.60;2.10;;;18.50;88.20;;;;;;4208696;28;20113;-64
2021/09/24 03:16:33;;;;;;;7.63;2.30;;;18.50;88.10;;;;;;4209670;28;20539;-62
2021/09/24 03:18:56;;;;;;;6.15;2.33;;;18.50;88.10;;;;;;4209364;28;20059;-61
2021/09/24 03:21:19;;;;;;;8.57;2.08;;;18.50;88.20;;;;;;4209413;28;20040;-62
2021/09/24 03:23:41;;;;;;;7.45;2.13;;;18.50;88.30;;;;;;4209200;28;20437;-61
2021/09/24 03:26:03;;;;;;;7.13;2.03;;;18.50;88.40;;;;;;4209651;28;20048;-62
2021/09/24 03:28:25;;;;;;;5.47;2.00;;;18.40;88.40;;;;;;4209124;28;20051;-61
2021/09/24 03:30:47;;;;;;;10.30;2.80;;;18.50;88.50;;;;;;4209004;28;20040;-61
2021/09/24 03:33:09;;;;;;;11.40;2.97;;;18.50;88.70;;;;;;4208908;28;20097;-62
2021/09/24 03:35:33;;;;;;;9.00;2.15;;;18.50;88.60;;;;;;4209185;28;20502;-61
2021/09/24 03:37:55;;;;;;;6.57;2.00;;;18.50;88.60;;;;;;4208448;28;20055;-62
2021/09/24 03:40:17;;;;;;;11.52;2.90;;;18.50;88.70;;;;;;4209034;28;20105;-62
2021/09/24 03:42:42;;;;;;;7.88;2.88;;;18.40;88.70;;;;;;4209009;28;20758;-62
2021/09/24 03:45:06;;;;;;;8.00;2.30;;;18.50;88.70;;;;;;4209056;28;20048;-61
2021/09/24 03:47:28;;;;;;;6.32;1.88;;;18.40;88.70;;;;;;4208839;28;20063;-62
2021/09/24 03:49:50;;;;;;;8.23;2.08;;;18.40;88.70;;;;;;4208972;28;20504;-61
2021/09/24 03:52:15;;;;;;;8.20;1.92;;;18.50;88.90;;;;;;4208440;28;20603;-63
2021/09/24 03:54:38;;;;;;;6.88;1.98;;;18.40;88.90;;;;;;4208729;28;20047;-62
2021/09/24 03:57:00;;;;;;;7.53;2.55;;;18.40;88.90;;;;;;4208716;28;20490;-61
2021/09/24 03:59:22;;;;;;;4.70;1.58;;;18.40;89.00;;;;;;4208720;28;20456;-62
2021/09/24 04:01:44;;;;;;;6.25;2.00;;;18.40;89.00;;;;;;4208379;28;20054;-62
2021/09/24 04:04:09;;;;;;;5.50;1.70;;;18.40;89.00;;;;;;4191924;28;20048;-62
2021/09/24 04:06:32;;;;;;;5.47;2.10;;;18.40;89.00;;;;;;4191886;28;20059;-62
2021/09/24 04:08:55;;;;;;;5.32;1.98;;;18.40;89.00;;;;;;4204908;28;20494;-62
2021/09/24 04:11:17;;;;;;;6.60;1.70;;;18.40;89.10;;;;;;4208520;28;20069;-62
2021/09/24 04:13:40;;;;;;;8.90;2.60;;;18.40;89.10;;;;;;4208492;28;20117;-62
2021/09/24 04:16:03;;;;;;;6.18;2.15;;;18.40;89.20;;;;;;4208237;28;20102;-61
2021/09/24 04:18:25;;;;;;;5.50;1.77;;;18.40;89.30;;;;;;4208318;28;20047;-62
2021/09/24 04:20:47;;;;;;;5.50;1.75;;;18.40;89.30;;;;;;4208470;28;20047;-62
2021/09/24 04:23:10;;;;;;;6.07;2.17;;;18.50;89.40;;;;;;4208332;28;20075;-62
2021/09/24 04:25:33;;;;;;;5.55;1.75;;;18.40;89.40;;;;;;4208438;28;20065;-62
2021/09/24 04:27:55;;;;;;;4.60;1.73;;;18.40;90.00;;;;;;4207815;28;20511;-62
2021/09/24 04:30:17;;;;;;;4.88;1.85;;;18.40;89.40;;;;;;4208266;28;20143;-62
2021/09/24 04:32:39;;;;;;;6.25;2.65;;;18.40;89.40;;;;;;4208220;28;20080;-62
2021/09/24 04:35:02;;;;;;;5.20;1.60;;;18.40;89.40;;;;;;4208424;28;20410;-62
2021/09/24 04:37:24;;;;;;;4.90;1.88;;;18.50;89.50;;;;;;4208056;28;20410;-62
2021/09/24 04:39:46;;;;;;;5.95;1.52;;;18.40;89.40;;;;;;4208359;28;20049;-62
2021/09/24 04:42:10;;;;;;;5.72;1.42;;;18.50;89.50;;;;;;4207928;28;20113;-62
2021/09/24 04:44:32;;;;;;;6.05;1.40;;;18.40;89.40;;;;;;4208437;28;20154;-62
2021/09/24 04:46:54;;;;;;;6.63;1.80;;;18.50;89.50;;;;;;4207812;28;20052;-62
2021/09/24 04:49:17;;;;;;;4.35;1.98;;;18.40;89.50;;;;;;4191439;28;20558;-63
2021/09/24 04:51:39;;;;;;;3.85;1.27;;;18.40;89.60;;;;;;4191327;28;20482;-62
2021/09/24 04:54:01;;;;;;;4.38;1.52;;;18.40;89.60;;;;;;4191142;28;20512;-62
2021/09/24 04:56:25;;;;;;;5.30;1.58;;;18.50;89.60;;;;;;4191264;28;20098;-62
2021/09/24 04:58:48;;;;;;;2.92;1.30;;;18.50;89.70;;;;;;4206761;28;20064;-63
2021/09/24 05:01:11;;;;;;;4.60;1.63;;;18.40;89.70;;;;;;4207568;28;20141;-62
2021/09/24 05:03:34;;;;;;;4.38;1.30;;;18.40;89.70;;;;;;4207791;28;20131;-62
2021/09/24 05:05:56;;;;;;;3.75;1.55;;;18.40;89.70;;;;;;4207842;28;20135;-62
2021/09/24 05:08:18;;;;;;;9.18;1.90;;;18.40;90.10;;;;;;4207705;28;20413;-62
2021/09/24 05:10:41;;;;;;;5.68;1.80;;;18.40;89.70;;;;;;4207661;28;20050;-61
2021/09/24 05:13:03;;;;;;;4.47;1.60;;;18.50;89.80;;;;;;4207843;28;20062;-62
2021/09/24 05:15:28;;;;;;;5.40;1.80;;;18.40;89.80;;;;;;4207452;28;20521;-62
2021/09/24 05:17:50;;;;;;;4.40;1.70;;;18.50;89.90;;;;;;4207909;28;20101;-62
2021/09/24 05:20:13;;;;;;;4.70;1.90;;;18.50;89.80;;;;;;4191037;28;20509;-62
2021/09/24 05:22:35;;;;;;;6.03;1.95;;;18.40;89.90;;;;;;4195493;28;20060;-63
2021/09/24 05:24:57;;;;;;;5.80;1.77;;;18.40;89.90;;;;;;4207545;28;20117;-62
2021/09/24 05:27:19;;;;;;;3.03;1.63;;;18.40;89.90;;;;;;4207456;28;20040;-62
2021/09/24 05:29:42;;;;;;;4.13;1.27;;;18.40;89.90;;;;;;4207567;28;20051;-62
2021/09/24 05:32:06;;;;;;;9.55;1.98;;;18.40;90.00;;;;;;4207501;28;20036;-63
2021/09/24 05:34:28;;;;;;;4.72;1.48;;;18.40;90.00;;;;;;4191079;28;20090;-63
2021/09/24 05:36:51;;;;;;;6.20;1.73;;;18.40;90.00;;;;;;4198976;28;20056;-63
2021/09/24 05:39:13;;;;;;;10.43;1.98;;;18.40;90.00;;;;;;4207847;28;20081;-62
2021/09/24 05:41:35;;;;;;;4.40;1.73;;;18.40;90.00;;;;;;4206968;28;20048;-62
2021/09/24 05:43:57;;;;;;;4.07;1.33;;;18.40;90.10;;;;;;4207301;28;20097;-66
2021/09/24 05:46:20;;;;;;;9.38;2.00;;;18.50;90.00;;;;;;4206925;28;20044;-64
2021/09/24 05:48:43;;;;;;;5.82;2.03;;;18.50;90.20;;;;;;4190962;28;20112;-65
2021/09/24 05:51:05;;;;;;;4.30;1.42;;;18.50;90.20;;;;;;4194568;28;20236;-66
2021/09/24 05:53:27;;;;;;;7.85;1.90;;;18.60;90.20;;;;;;4207695;28;20040;-63
2021/09/24 05:55:52;;;;;;;8.20;2.10;;;18.60;90.20;;;;;;4201557;28;20055;-64
2021/09/24 05:58:14;;;;;;;4.95;2.10;;;18.60;90.10;;;;;;4207263;28;20059;-63
2021/09/24 06:00:37;;;;;;;3.67;1.30;;;18.60;90.00;;;;;;4207173;28;20493;-62
2021/09/24 06:02:59;;;;;;;7.07;1.98;;;18.60;90.00;;;;;;4208649;28;20051;-61
2021/09/24 06:05:22;;;;;;;5.95;1.90;;;18.60;90.00;;;;;;4202148;28;20138;-65
2021/09/24 06:07:45;;;;;;;6.85;2.22;;;18.60;90.00;;;;;;4210687;28;20040;-62
2021/09/24 06:10:09;;;;;;;4.75;1.45;;;18.50;89.90;;;;;;4210490;28;20079;-63
2021/09/24 06:12:31;;;;;;;7.75;1.98;;;18.50;89.90;;;;;;4209901;28;20052;-64
2021/09/24 06:14:55;;;;;;;3.20;1.20;;;18.50;89.80;;;;;;4210204;28;20044;-63
2021/09/24 06:17:17;;;;;;;4.88;1.95;;;18.50;89.80;;;;;;4210979;27;20044;-63
2021/09/24 06:19:39;;;;;;;12.32;2.30;;;18.50;89.80;;;;;;4210567;28;20047;-63
2021/09/24 06:22:03;;;;;;;7.22;2.20;;;18.50;89.80;;;;;;4210433;28;20093;-63
2021/09/24 06:24:25;;;;;;;4.50;1.90;;;18.50;90.00;;;;;;4210090;28;20046;-62
2021/09/24 06:26:47;;;;;;;4.05;1.45;;;18.50;89.90;;;;;;4210422;28;20494;-65
2021/09/24 06:29:10;;;;;;;5.18;1.85;;;18.60;90.00;;;;;;4210219;28;20052;-64
2021/09/24 06:31:33;;;;;;;5.95;1.98;;;18.50;89.80;;;;;;4210395;28;20413;-61
2021/09/24 06:33:55;;;;;;;6.50;2.58;;;18.50;89.80;;;;;;4210249;28;20135;-63
2021/09/24 06:36:19;;;;;;;4.80;1.90;;;18.50;89.80;;;;;;4210134;28;20497;-62
2021/09/24 06:38:43;;;;;;;7.10;1.75;;;18.50;89.70;;;;;;4210382;28;20059;-62
2021/09/24 06:41:04;;;;;;;6.97;2.33;;;18.50;89.80;;;;;;4210173;28;20109;-64
2021/09/24 06:43:27;;;;;;;6.75;1.75;;;18.50;89.60;;;;;;4209559;28;20044;-62
2021/09/24 06:45:49;;;;;;;9.55;2.80;;;18.50;89.70;;;;;;4210134;28;20498;-64
2021/09/24 06:48:11;;;;;;;5.43;2.22;;;18.50;89.60;;;;;;4210181;28;20054;-64
2021/09/24 06:50:34;;;;;;;6.90;1.98;;;18.50;89.60;;;;;;4209742;28;20052;-63
2021/09/24 06:52:56;;;;;;;5.78;1.83;;;18.50;89.70;;;;;;4206500;28;20517;-64
2021/09/24 06:55:22;;;;;;;5.22;2.33;;;18.50;89.60;;;;;;4209587;28;20060;-62
2021/09/24 06:57:44;;;;;;;6.53;2.42;;;18.50;89.60;;;;;;4209427;28;20504;-63
2021/09/24 07:00:08;;;;;;;13.63;2.10;;;18.50;89.70;;;;;;4208819;28;20048;-63
2021/09/24 07:02:29;;;;;;;5.38;2.17;;;18.50;89.60;;;;;;4207077;28;20040;-62
2021/09/24 07:04:52;;;;;;;6.20;2.22;;;18.50;89.60;;;;;;4208962;28;20501;-62
2021/09/24 07:07:14;;;;;;;4.65;2.15;;;18.50;89.80;;;;;;4209659;28;20087;-64
2021/09/24 07:09:37;;;;;;;8.75;2.20;;;18.50;89.70;;;;;;4209614;28;20071;-62
2021/09/24 07:12:00;;;;;;;8.05;2.58;;;18.50;89.60;;;;;;4209362;28;20048;-62
2021/09/24 07:14:22;;;;;;;9.82;3.00;;;18.50;89.70;;;;;;4208598;28;20052;-62
2021/09/24 07:16:49;;;;;;;5.15;2.28;;;18.50;89.70;;;;;;4207943;28;20418;-62
2021/09/24 07:19:11;;;;;;;5.13;2.50;;;18.50;89.60;;;;;;4208822;28;20056;-64
2021/09/24 07:21:34;;;;;;;5.22;2.30;;;18.50;89.60;;;;;;4209208;28;20044;-64
2021/09/24 07:23:56;;;;;;;4.50;2.67;;;18.50;89.60;;;;;;4208831;28;20044;-64
2021/09/24 07:26:18;;;;;;;2.50;1.90;;;18.50;89.60;;;;;;4209143;28;20134;-64
2021/09/24 07:28:42;;;;;;;10.27;2.97;;;18.50;89.70;;;;;;4207846;28;20417;-62
2021/09/24 07:31:04;;;;;;;9.02;2.72;;;18.50;89.70;;;;;;4207617;28;20090;-62
2021/09/24 07:33:26;;;;;;;8.25;2.80;;;18.50;89.70;;;;;;4208941;28;20063;-64
2021/09/24 07:35:49;;;;;;;4.70;1.65;;;18.50;89.80;;;;;;4208826;28;20048;-64
2021/09/24 07:38:11;;;;;;;4.70;2.60;;;18.50;89.70;;;;;;4209256;28;20052;-63
2021/09/24 07:40:33;;;;;;;4.13;2.13;;;18.50;89.80;;;;;;4191999;28;20182;-64
2021/09/24 07:42:56;;;;;;;8.93;2.60;;;18.50;89.70;;;;;;4192288;28;20040;-62
2021/09/24 07:45:20;;;;;;;5.32;2.08;;;18.50;89.70;;;;;;4193108;28;20066;-63
2021/09/24 07:47:42;;;;;;;3.28;2.20;;;18.50;89.70;;;;;;4208861;28;20135;-62
2021/09/24 07:50:04;;;;;;;7.88;2.90;;;18.60;89.70;;;;;;4208758;28;20125;-63
2021/09/24 07:52:27;;;;;;;4.20;2.03;;;18.60;89.80;;;;;;4209133;28;20040;-64
2021/09/24 07:54:49;;;;;;;5.97;2.50;;;18.60;89.80;;;;;;4209003;28;20117;-63
2021/09/24 07:57:11;;;;;;;8.15;3.00;;;18.60;89.80;;;;;;4208614;28;20052;-65
2021/09/24 07:59:33;;;;;;;4.30;2.03;;;18.60;89.80;;;;;;4208501;28;20051;-65
2021/09/24 08:01:57;;;;;;;9.68;2.97;;;18.60;90.20;;;;;;4208207;28;20055;-63
2021/09/24 08:04:19;;;;;;;15.95;2.95;;;18.60;89.90;;;;;;4191941;28;20048;-63
2021/09/24 08:06:42;;;;;;;5.65;2.42;;;18.60;89.90;;;;;;4200638;28;20512;-62
2021/09/24 08:09:05;;;;;;;5.70;2.42;;;18.60;89.80;;;;;;4191588;28;20044;-63
2021/09/24 08:11:27;;;;;;;8.15;2.83;;;18.60;90.00;;;;;;4192212;28;20410;-62
2021/09/24 08:13:50;;;;;;;7.75;2.55;;;18.60;90.30;;;;;;4203310;28;20533;-62
2021/09/24 08:16:12;;;;;;;6.30;2.42;;;18.60;90.00;;;;;;4208397;28;20105;-62
2021/09/24 08:18:37;;;;;;;8.85;2.63;;;18.60;89.90;;;;;;4208195;28;20474;-67
2021/09/24 08:21:00;;;;;;;8.25;2.50;;;18.60;90.00;;;;;;4208376;28;20048;-64
2021/09/24 08:23:22;;;;;;;3.95;2.38;;;18.60;90.00;;;;;;4208344;28;20048;-63
2021/09/24 08:25:44;;;;;;;6.82;2.65;;;18.60;90.10;;;;;;4207508;28;20070;-61
2021/09/24 08:28:07;;;;;;;5.60;2.15;;;18.60;90.00;;;;;;4200781;28;20089;-63
2021/09/24 08:30:29;;;;;;;7.63;2.88;;;18.60;90.00;;;;;;4208293;28;20040;-63
2021/09/24 08:32:51;;;;;;;7.13;2.75;;;18.60;90.00;;;;;;4208439;28;20051;-63
2021/09/24 08:35:16;;;;;;;8.25;2.88;;;18.60;90.00;;;;;;4208707;28;20081;-62
2021/09/24 08:37:39;;;;;;;6.47;2.80;;;18.60;90.00;;;;;;4207936;28;20744;-62
2021/09/24 08:40:01;;;;;;;6.03;2.65;;;18.60;90.00;;;;;;4191843;28;20175;-65
2021/09/24 08:42:25;;;;;;;7.85;3.00;;;18.60;90.00;;;;;;4191577;28;20048;-65
2021/09/24 08:44:49;;;;;;;6.75;2.80;;;18.60;90.00;;;;;;4191503;28;20510;-63
2021/09/24 08:47:11;;;;;;;7.47;2.72;;;18.60;90.00;;;;;;4204020;28;20062;-64
2021/09/24 08:49:33;;;;;;;6.97;3.00;;;18.70;90.00;;;;;;4207987;28;20040;-63
2021/09/24 08:51:57;;;;;;;6.35;2.90;;;18.60;90.10;;;;;;4208051;28;20475;-63
2021/09/24 08:54:19;;;;;;;4.38;2.83;;;18.60;90.00;;;;;;4207684;28;20055;-63
2021/09/24 08:56:41;;;;;;;6.35;2.63;;;18.60;90.00;;;;;;4208190;28;20044;-63
2021/09/24 08:59:04;;;;;;;7.90;2.83;;;18.70;90.00;;;;;;4207291;28;20093;-64
2021/09/24 09:01:26;;;;;;;5.35;2.83;;;18.70;90.40;;;;;;4207276;28;20145;-60
2021/09/24 09:03:49;;;;;;;7.07;3.65;;;18.70;90.00;;;;;;4206446;28;20082;-63
2021/09/24 09:06:15;;;;;;;8.05;2.85;;;18.70;90.10;;;;;;4207996;28;20544;-62
2021/09/24 09:08:38;;;;;;;6.15;3.38;;;18.70;90.10;;;;;;4207775;28;20448;-61
2021/09/24 09:11:03;;;;;;;8.07;3.55;;;18.70;90.10;;;;;;4207589;28;20444;-62
2021/09/24 09:13:29;;;;;;;7.03;2.72;;;18.70;90.20;;;;;;4207415;28;20422;-60
2021/09/24 09:15:57;;;;;;;3.72;2.58;;;18.70;90.10;;;;;;4207607;28;20054;-62
2021/09/24 09:18:20;;;;;;;6.88;3.17;;;18.70;90.10;;;;;;4207608;28;20059;-61
2021/09/24 09:20:46;;;;;;;5.30;2.58;;;18.70;90.10;;;;;;4207869;28;20229;-62
2021/09/24 09:23:11;;;;;;;6.32;3.03;;;18.70;90.10;;;;;;4207523;28;20886;-63
2021/09/24 09:25:36;;;;;;;6.10;2.67;;;18.70;90.10;;;;;;4207942;28;20037;-63
2021/09/24 09:28:00;;;;;;;6.30;3.25;;;18.70;90.10;;;;;;4207979;28;20505;-62
2021/09/24 09:30:23;;;;;;;5.30;3.05;;;18.70;90.10;;;;;;4207932;28;20055;-63
2021/09/24 09:32:58;;;;;;;6.13;2.78;;;18.70;90.10;;;;;;4206990;28;20549;-63
2021/09/24 09:35:24;;;;;;;5.47;2.92;;;18.70;90.10;;;;;;4207215;28;20130;-63
2021/09/24 09:37:45;;;;;;;6.82;2.45;;;18.70;90.10;;;;;;4210294;28;20048;-63
2021/09/24 09:40:13;;;;;;;8.35;3.17;;;18.70;90.10;;;;;;4210957;28;20051;-62
2021/09/24 09:42:39;;;;;;;10.63;3.60;;;18.70;90.10;;;;;;4210525;28;20078;-63
2021/09/24 09:45:01;;;;;;;9.07;3.22;;;18.70;90.20;;;;;;4210738;28;20140;-65
2021/09/24 09:47:31;;;;;;;6.18;3.70;;;18.70;90.20;;;;;;4209210;28;20055;-64
2021/09/24 09:50:06;;;;;;;5.97;2.60;;;18.70;90.30;;;;;;4210588;28;20054;-63
2021/09/24 09:52:30;;;;;;;3.83;2.33;;;18.80;90.30;;;;;;4210275;28;20055;-63
2021/09/24 09:55:00;;;;;;;3.83;2.17;;;18.80;90.30;;;;;;4210787;28;20044;-62
2021/09/24 09:57:22;;;;;;;6.57;2.50;;;18.80;90.30;;;;;;4210347;28;20459;-62
2021/09/24 09:59:53;;;;;;;5.00;2.40;;;18.80;90.30;;;;;;4210664;28;20040;-61
2021/09/24 10:02:17;;;;;;;8.23;3.00;;;18.80;90.30;;;;;;4210225;28;20497;-62
2021/09/24 10:04:40;;;;;;;5.60;2.50;;;18.80;90.30;;;;;;4210494;28;20097;-62
2021/09/24 10:07:11;;;;;;;5.18;2.95;;;18.80;90.20;;;;;;4210159;28;20533;-64
2021/09/24 10:09:34;;;;;;;10.13;2.30;;;18.80;90.30;;;;;;4210386;28;20101;-62
2021/09/24 10:11:57;;;;;;;4.45;2.20;;;18.80;90.10;;;;;;4210271;28;20086;-62
2021/09/24 10:14:20;;;;;;;6.60;2.85;;;18.80;90.10;;;;;;4210498;28;20117;-62
2021/09/24 10:16:46;;;;;;;6.97;2.88;;;18.80;90.20;;;;;;4210125;28;20127;-62
2021/09/24 10:19:08;;;;;;;4.90;2.70;;;18.90;90.20;;;;;;4210625;28;20490;-62
2021/09/24 10:21:45;;;;;;;4.75;2.35;;;18.90;90.20;;;;;;4209732;28;20485;-63
2021/09/24 10:24:07;;;;;;;6.55;3.03;;;18.90;90.20;;;;;;4210432;28;20097;-63
2021/09/24 10:26:33;;;;;;;7.07;2.70;;;18.90;90.10;;;;;;4209259;28;20052;-64
2021/09/24 10:28:58;;;;;;;2.90;2.20;;;18.90;90.20;;;;;;4210313;28;20104;-63
2021/09/24 10:31:20;;;;;;;6.63;2.67;;;18.90;90.00;;;;;;4210010;28;20097;-63
2021/09/24 10:33:52;;;;;;;6.25;2.75;;;19.00;90.00;;;;;;4204146;28;20406;-62
2021/09/24 10:36:39;;;;;;;8.40;2.95;;;19.00;90.00;;;;;;4209558;28;20448;-62
2021/09/24 10:39:01;;;;;;;4.82;2.53;;;19.00;90.10;;;;;;4209955;28;20040;-61
2021/09/24 10:41:23;;;;;;;3.15;2.20;;;19.00;89.90;;;;;;4210086;28;20501;-63
2021/09/24 10:43:47;;;;;;;7.03;2.45;;;19.10;90.00;;;;;;4209394;28;20128;-62
2021/09/24 10:46:31;;;;;;;5.20;2.25;;;19.10;90.00;;;;;;4208382;28;20104;-61
2021/09/24 10:51:23;;;;;;;5.28;2.60;;;19.10;90.00;;;;;;4240586;27;20378;-62
2021/09/24 10:53:48;;;;;;;4.65;2.10;;;19.10;89.60;;;;;;4239684;27;20065;-63
2021/09/24 10:56:29;;;;;;;4.30;2.42;;;19.10;89.50;;;;;;4239604;27;20055;-61
2021/09/24 10:58:51;;;;;;;4.80;3.15;;;19.10;89.60;;;;;;4223510;27;20044;-63
2021/09/24 11:01:30;;;;;;;4.35;2.42;;;19.10;89.40;;;;;;4222555;27;20116;-62
2021/09/24 11:03:56;;;;;;;3.97;2.83;;;19.20;89.70;;;;;;4222429;27;20070;-61
2021/09/24 11:06:36;;;;;;;3.95;2.78;;;19.20;89.40;;;;;;4222256;27;20501;-63
2021/09/24 11:09:00;;;;;;;5.32;2.92;;;19.20;89.70;;;;;;4222260;28;20036;-63
2021/09/24 11:11:24;;;;;;;6.00;2.85;;;19.20;89.30;;;;;;4222052;28;20509;-63
2021/09/24 11:13:47;;;;;;;4.60;2.72;;;19.30;89.20;;;;;;4221615;27;20493;-63
2021/09/24 11:16:12;;;;;;;4.55;2.42;;;19.30;89.20;;;;;;4222279;27;20044;-63
2021/09/24 11:18:48;;;;;;;6.75;2.85;;;19.40;89.40;;;;;;4221959;27;20101;-63
2021/09/24 11:21:11;;;;;;;3.30;2.78;;;19.30;89.50;;;;;;4222101;27;20052;-65
2021/09/24 11:23:37;;;;;;;5.00;2.78;;;19.40;89.30;;;;;;4229683;27;20038;-65
2021/09/24 11:26:17;;;;;;;5.85;2.95;;;19.40;89.20;;;;;;4246047;27;20066;-63
2021/09/24 11:28:40;;;;;;;6.07;3.08;;;19.40;89.30;;;;;;4235150;27;20411;-65
2021/09/24 11:31:03;;;;;;;4.15;2.70;;;19.50;89.30;;;;;;4255769;27;20073;-64
2021/09/24 11:33:39;;;;;;;4.75;2.97;;;19.50;89.30;;;;;;4250382;27;20051;-65
2021/09/24 11:36:02;;;;;;;9.90;3.75;;;19.50;89.30;;;;;;4221449;27;20052;-66
2021/09/24 11:38:24;;;;;;;5.10;2.75;;;19.60;90.00;;;;;;4213150;27;20051;-66
2021/09/24 11:40:53;;;;;;;3.30;2.53;;;19.60;89.20;;;;;;4255839;27;20509;-66
2021/09/24 11:43:23;;;;;;;5.53;2.92;;;19.60;89.30;;;;;;4254775;27;20108;-66
2021/09/24 11:45:45;;;;;;;3.65;2.58;;;19.70;89.50;;;;;;4242982;27;20044;-66
2021/09/24 11:48:09;;;;;;;6.25;3.13;;;19.70;89.30;;;;;;4221663;28;20470;-67
2021/09/24 11:50:33;;;;;;;5.68;2.67;;;19.80;89.40;;;;;;4221289;28;20047;-64
2021/09/24 11:52:57;;;;;;;5.68;3.30;;;19.80;89.20;;;;;;4221727;28;20455;-67
2021/09/24 11:55:22;;;;;;;8.73;3.00;;;19.90;89.30;;;;;;4221890;28;20078;-67
2021/09/24 11:57:59;;;;;;;4.18;2.88;;;19.90;89.10;;;;;;4204643;28;20044;-66
2021/09/24 12:00:22;;;;;;;6.53;3.15;;;20.00;89.10;;;;;;4204542;28;20048;-65
2021/09/24 12:02:44;;;;;;;3.60;2.55;;;20.00;89.00;;;;;;4208425;28;20052;-64
2021/09/24 12:05:07;;;;;;;5.82;2.60;;;20.00;88.90;;;;;;4212048;28;20059;-64
2021/09/24 12:07:32;;;;;;;4.03;2.30;;;20.10;89.00;;;;;;4227263;27;20417;-64
2021/09/24 12:09:59;;;;;;;5.22;2.78;;;20.10;88.80;;;;;;4227298;27;20151;-64
2021/09/24 12:12:21;;;;;;;8.48;2.55;;;20.10;88.70;;;;;;4226817;27;20052;-64
2021/09/24 12:14:54;;;;;;;4.47;2.70;;;20.20;88.70;;;;;;4226711;27;20050;-65
2021/09/24 12:17:17;;;;;;;3.83;2.25;;;20.20;88.50;;;;;;4209698;28;20061;-64
2021/09/24 12:19:39;;;;;;;5.35;2.72;;;20.20;88.20;;;;;;4193333;28;20068;-64
2021/09/24 12:22:02;;;;;;;8.02;3.10;;;20.20;88.10;;;;;;4193231;28;20049;-65
2021/09/24 12:24:29;;;;;;;6.38;2.55;;;20.20;88.00;;;;;;4193277;28;20052;-69
2021/09/24 12:27:02;;;;;;;5.15;3.13;;;20.20;88.00;;;;;;4209643;27;20052;-63
2021/09/24 12:29:26;;;;;;;6.43;2.97;;;20.30;88.00;;;;;;4209250;28;20047;-64